WIII/CGK METAR and TAF weather

Enter ICAO airport designator
Station Type Date Time Source
WIII METAR 2020/02/27 14:00 UTC NOAA

WIII 271400Z 05005KT 5000 HZ SCT020 28/25 Q1010 NOSIG


Station Type Date Time Source
WIII Decoded METAR 2020/02/27 14:00 UTC NOAA

Jakarta / Soekarno-Hatta, Indonesia (WIII) 06-07S 106-39E 8M
Feb 27, 2020 - 09:00 AM EST / 2020.02.27 1400 UTC
Wind: from the NE (050 degrees) at 6 MPH (5 KT):0
Visibility: 3 mile(s):0
Sky conditions: partly cloudy
Weather: haze
Temperature: 82 F (28 C)
Dew Point: 77 F (25 C)
Relative Humidity: 83%
Pressure (altimeter): 29.83 in. Hg (1010 hPa)
ob: WIII 271400Z 05005KT 5000 HZ SCT020 28/25 Q1010 NOSIG
cycle: 14

Station Type Date Time Source
WIII TAF 2020/02/27 12:51 UTC NOAA

TAF WIII 271100Z 2712/2818 01008KT 7000 SCT020
TEMPO 2716/2719 4000 -TSRA FEW018CB BKN020

Example: see airport list